Time;durP1;ratioP1;P1;durP2;ratioP2;P2;SDS_P1;SDS_P2;PMS_P1;PMS_P2;Temp;Humidity;BMP_temperature;BMP_pressure;BME280_temperature;BME280_humidity;BME280_pressure;Samples;Min_cycle;Max_cycle;Signal;HPM_P1;HPM_P2
2023/06/08 00:01:47;;;;;;;;;;;;;;;;;;12993476;19;20014;-63
2023/06/08 00:06:04;;;;;;;6.00;4.55;;;;;;;;;;12991620;19;19919;-64
2023/06/08 00:10:23;;;;;;;6.13;4.00;;;;;;;;;;12992271;19;20041;-65
2023/06/08 00:14:41;;;;;;;5.32;4.35;;;;;;;;;;12991951;19;20018;-63
2023/06/08 00:19:01;;;;;;;5.35;3.67;;;;;;;;;;12990881;19;20051;-64
2023/06/08 00:23:19;;;;;;;5.63;4.15;;;;;;;;;;12990639;19;20018;-65
2023/06/08 00:27:36;;;;;;;5.72;4.28;;;;;;;;;;12991190;19;20010;-62
2023/06/08 00:31:56;;;;;;;5.28;3.53;;;;;;;;;;12990833;19;20107;-65
2023/06/08 00:36:13;;;;;;;5.93;4.22;;;;;;;;;;12989405;19;20014;-64
2023/06/08 00:40:31;;;;;;;5.80;3.33;;;;;;;;;;12987410;19;20093;-63
2023/06/08 00:44:49;;;;;;;5.75;3.78;;;;;;;;;;12989751;19;20014;-64
2023/06/08 00:49:08;;;;;;;8.02;4.07;;;;;;;;;;12989091;19;20470;-63
2023/06/08 00:53:28;;;;;;;10.10;5.07;;;;;;;;;;12990068;19;20021;-63
2023/06/08 00:57:47;;;;;;;11.13;5.90;;;;;;;;;;12989509;19;20014;-63
2023/06/08 01:02:05;;;;;;;12.05;6.60;;;;;;;;;;12989144;19;20232;-63
2023/06/08 01:06:23;;;;;;;10.30;6.07;;;;;;;;;;12991119;19;20010;-63
2023/06/08 01:11:13;;;;;;;9.82;5.40;;;;;;;;;;12989137;19;20019;-64
2023/06/08 01:15:39;;;;;;;10.50;5.78;;;;;;;;;;12986281;19;20018;-64
2023/06/08 01:20:32;;;;;;;8.65;5.15;;;;;;;;;;12986657;19;20018;-64
2023/06/08 01:24:56;;;;;;;8.32;4.97;;;;;;;;;;12986409;19;20018;-64
2023/06/08 01:29:15;;;;;;;6.78;4.68;;;;;;;;;;12984902;19;20018;-64
2023/06/08 01:33:33;;;;;;;7.10;4.68;;;;;;;;;;12987344;19;20533;-64
2023/06/08 01:37:58;;;;;;;5.70;4.15;;;;;;;;;;12987059;19;20010;-64
2023/06/08 01:42:19;;;;;;;7.85;4.53;;;;;;;;;;12986062;19;20025;-64
2023/06/08 01:46:37;;;;;;;6.15;4.40;;;;;;;;;;12985867;19;20014;-64
2023/06/08 01:50:56;;;;;;;7.78;4.57;;;;;;;;;;12986889;19;20010;-63
2023/06/08 01:55:16;;;;;;;5.78;4.00;;;;;;;;;;12984413;19;20029;-63
2023/06/08 01:59:35;;;;;;;6.22;4.43;;;;;;;;;;12986267;19;20026;-64
2023/06/08 02:03:53;;;;;;;6.32;4.00;;;;;;;;;;12986134;19;20019;-66
2023/06/08 02:08:12;;;;;;;6.13;4.05;;;;;;;;;;12984994;19;20482;-65
2023/06/08 02:12:31;;;;;;;7.05;4.43;;;;;;;;;;12985066;19;20050;-64
2023/06/08 02:16:49;;;;;;;6.43;4.30;;;;;;;;;;12984637;19;20010;-64
2023/06/08 02:21:09;;;;;;;6.97;4.22;;;;;;;;;;12983988;19;20019;-64
2023/06/08 02:25:27;;;;;;;8.40;4.68;;;;;;;;;;12983728;19;20014;-64
2023/06/08 02:29:45;;;;;;;7.28;4.50;;;;;;;;;;12984080;19;20115;-64
2023/06/08 02:34:03;;;;;;;7.00;4.28;;;;;;;;;;12983322;19;20014;-64
2023/06/08 02:38:20;;;;;;;;;;;;;;;;;;12983899;19;20018;-64
2023/06/08 02:42:39;;;;;;;6.68;4.80;;;;;;;;;;12982153;19;19921;-64
2023/06/08 02:46:57;;;;;;;6.25;4.15;;;;;;;;;;12983543;19;20010;-63
2023/06/08 02:51:16;;;;;;;7.80;4.47;;;;;;;;;;12983346;19;20518;-65
2023/06/08 02:55:36;;;;;;;5.43;4.10;;;;;;;;;;12983305;19;20002;-64
2023/06/08 02:59:54;;;;;;;6.60;4.65;;;;;;;;;;12982577;19;20362;-64
2023/06/08 03:04:12;;;;;;;6.30;4.28;;;;;;;;;;12980985;19;20022;-64
2023/06/08 03:08:30;;;;;;;4.72;3.45;;;;;;;;;;12981909;19;20014;-65
2023/06/08 03:12:49;;;;;;;8.85;3.40;;;;;;;;;;12981938;19;20050;-65
2023/06/08 03:17:08;;;;;;;6.60;3.10;;;;;;;;;;12980013;19;20021;-64
2023/06/08 03:21:28;;;;;;;4.20;3.08;;;;;;;;;;12981552;19;20470;-64
2023/06/08 03:25:50;;;;;;;7.45;3.25;;;;;;;;;;12977682;19;20015;-64
2023/06/08 03:30:10;;;;;;;6.43;2.67;;;;;;;;;;12980586;19;20010;-64
2023/06/08 03:34:31;;;;;;;6.10;3.78;;;;;;;;;;12980705;19;20014;-64
2023/06/08 03:38:49;;;;;;;5.68;3.42;;;;;;;;;;12981660;19;20026;-64
2023/06/08 03:43:07;;;;;;;5.40;3.38;;;;;;;;;;12979445;19;20015;-64
2023/06/08 03:47:25;;;;;;;4.18;3.15;;;;;;;;;;12979961;19;20399;-65
2023/06/08 03:51:43;;;;;;;4.65;3.58;;;;;;;;;;12980470;19;20444;-65
2023/06/08 03:56:02;;;;;;;5.07;3.38;;;;;;;;;;12979555;19;20022;-64
2023/06/08 04:00:20;;;;;;;5.40;3.90;;;;;;;;;;12979373;19;20018;-64
2023/06/08 04:04:39;;;;;;;3.85;3.05;;;;;;;;;;12976044;19;20036;-64
2023/06/08 04:08:57;;;;;;;5.90;3.55;;;;;;;;;;12979411;19;20011;-64
2023/06/08 04:13:14;;;;;;;4.72;3.72;;;;;;;;;;12977885;19;20019;-65
2023/06/08 04:17:33;;;;;;;4.53;3.42;;;;;;;;;;12978037;19;20365;-65
2023/06/08 04:21:56;;;;;;;4.70;3.53;;;;;;;;;;12979844;19;20018;-65
2023/06/08 04:26:15;;;;;;;6.65;4.40;;;;;;;;;;12977410;19;20014;-64
2023/06/08 04:30:35;;;;;;;7.22;3.80;;;;;;;;;;12975841;19;20014;-65
2023/06/08 04:34:52;;;;;;;5.10;3.70;;;;;;;;;;12977917;19;20015;-65
2023/06/08 04:39:10;;;;;;;4.40;3.40;;;;;;;;;;12989243;19;20010;-64
2023/06/08 04:43:31;;;;;;;6.68;3.92;;;;;;;;;;12990425;19;20483;-64
2023/06/08 04:47:48;;;;;;;4.78;3.00;;;;;;;;;;12989720;19;20011;-65
2023/06/08 04:52:08;;;;;;;6.40;3.70;;;;;;;;;;12986936;19;20039;-64
2023/06/08 04:56:29;;;;;;;4.15;2.83;;;;;;;;;;12989785;19;20465;-64
2023/06/08 05:00:47;;;;;;;6.40;3.85;;;;;;;;;;12989104;19;20138;-65
2023/06/08 05:05:05;;;;;;;6.40;3.67;;;;;;;;;;12988243;19;20328;-64
2023/06/08 05:09:25;;;;;;;10.38;3.90;;;;;;;;;;12990009;19;20010;-65
2023/06/08 05:13:43;;;;;;;5.35;3.20;;;;;;;;;;12989034;19;20022;-64
2023/06/08 05:18:03;;;;;;;4.07;2.85;;;;;;;;;;12987059;19;20011;-66
2023/06/08 05:22:21;;;;;;;7.75;3.60;;;;;;;;;;12987763;19;20392;-65
2023/06/08 05:26:39;;;;;;;4.80;3.22;;;;;;;;;;12987575;19;20053;-65
2023/06/08 05:30:58;;;;;;;4.72;2.63;;;;;;;;;;12987413;19;20013;-65
2023/06/08 05:35:17;;;;;;;3.63;2.80;;;;;;;;;;12986153;19;20396;-64
2023/06/08 05:39:35;;;;;;;4.35;2.83;;;;;;;;;;12987639;19;20014;-64
2023/06/08 05:43:53;;;;;;;4.53;2.92;;;;;;;;;;12987152;19;20014;-65
2023/06/08 05:48:12;;;;;;;4.10;2.90;;;;;;;;;;12985972;19;20362;-65
2023/06/08 05:52:32;;;;;;;5.10;2.80;;;;;;;;;;12987058;19;20374;-65
2023/06/08 05:56:50;;;;;;;3.78;2.25;;;;;;;;;;12986807;19;20010;-65
2023/06/08 06:01:09;;;;;;;6.00;2.97;;;;;;;;;;12984583;19;20018;-67
2023/06/08 06:05:27;;;;;;;4.10;2.35;;;;;;;;;;12985301;19;20014;-65
2023/06/08 06:09:46;;;;;;;4.82;2.25;;;;;;;;;;12985845;19;20480;-67
2023/06/08 06:14:03;;;;;;;4.60;2.08;;;;;;;;;;12984516;19;20021;-64
2023/06/08 06:18:22;;;;;;;4.22;2.55;;;;;;;;;;12984169;19;20029;-65
2023/06/08 06:22:40;;;;;;;4.13;3.00;;;;;;;;;;12985097;19;20386;-65
2023/06/08 06:27:00;;;;;;;4.45;2.83;;;;;;;;;;12984979;19;20014;-64
2023/06/08 06:31:18;;;;;;;5.20;2.83;;;;;;;;;;12985742;19;20356;-62
2023/06/08 06:35:37;;;;;;;4.82;2.72;;;;;;;;;;12985189;19;20002;-62
2023/06/08 06:39:54;;;;;;;4.22;2.63;;;;;;;;;;12984433;19;20025;-62
2023/06/08 06:44:13;;;;;;;3.95;2.67;;;;;;;;;;12984090;19;20021;-62
2023/06/08 06:48:30;;;;;;;4.78;2.58;;;;;;;;;;12984683;19;20018;-62
2023/06/08 06:52:49;;;;;;;5.32;3.25;;;;;;;;;;12983871;19;20038;-62
2023/06/08 06:57:08;;;;;;;5.25;3.38;;;;;;;;;;12981906;19;20018;-62
2023/06/08 07:01:26;;;;;;;6.63;2.90;;;;;;;;;;12981267;19;20348;-61
2023/06/08 07:05:46;;;;;;;5.18;2.55;;;;;;;;;;12981865;19;20327;-62
2023/06/08 07:10:04;;;;;;;3.67;2.70;;;;;;;;;;12982104;19;20022;-62
2023/06/08 07:14:24;;;;;;;3.80;2.45;;;;;;;;;;12983365;19;20021;-61
2023/06/08 07:18:42;;;;;;;4.93;3.30;;;;;;;;;;12981600;19;20047;-61
2023/06/08 07:23:04;;;;;;;5.65;3.25;;;;;;;;;;12981718;19;20873;-65
2023/06/08 07:27:44;;;;;;;4.35;3.13;;;;;;;;;;12981376;19;20025;-61
2023/06/08 07:32:02;;;;;;;4.47;2.83;;;;;;;;;;12980476;19;20490;-61
2023/06/08 07:36:20;;;;;;;5.45;3.10;;;;;;;;;;12981681;19;20014;-61
2023/06/08 07:40:38;;;;;;;3.10;2.53;;;;;;;;;;12981035;19;20014;-61
2023/06/08 07:44:56;;;;;;;5.55;3.42;;;;;;;;;;12979973;19;20021;-61
2023/06/08 07:49:14;;;;;;;5.45;3.28;;;;;;;;;;12979682;19;20412;-62
2023/06/08 07:53:38;;;;;;;4.88;3.60;;;;;;;;;;12980993;19;20023;-61
2023/06/08 07:57:56;;;;;;;5.95;4.05;;;;;;;;;;12981242;19;20019;-61
2023/06/08 08:02:14;;;;;;;;;;;;;;;;;;12981543;19;20010;-61
2023/06/08 08:06:31;;;;;;;6.38;3.63;;;;;;;;;;12981416;19;20392;-61
2023/06/08 08:10:50;;;;;;;6.03;4.10;;;;;;;;;;12986766;19;20030;-60
2023/06/08 08:15:08;;;;;;;4.53;3.13;;;;;;;;;;12992791;19;20033;-60
2023/06/08 08:19:26;;;;;;;4.93;3.55;;;;;;;;;;12993057;19;20468;-60
2023/06/08 08:23:45;;;;;;;6.93;4.63;;;;;;;;;;12993069;19;20014;-60
2023/06/08 08:28:03;;;;;;;8.02;4.63;;;;;;;;;;12990567;19;20034;-60
2023/06/08 08:32:21;;;;;;;7.35;5.05;;;;;;;;;;12991613;19;20038;-61
2023/06/08 08:36:39;;;;;;;8.85;6.40;;;;;;;;;;12991809;19;20025;-60
2023/06/08 08:41:09;;;;;;;8.73;5.70;;;;;;;;;;12991354;19;20015;-61
2023/06/08 08:45:31;;;;;;;8.73;5.70;;;;;;;;;;12990774;19;20018;-61
2023/06/08 08:50:03;;;;;;;8.27;5.22;;;;;;;;;;12991835;19;20019;-61
2023/06/08 08:54:31;;;;;;;5.43;3.92;;;;;;;;;;12991659;19;20039;-61
2023/06/08 08:58:53;;;;;;;8.90;5.63;;;;;;;;;;12988711;19;20384;-61
2023/06/08 09:03:11;;;;;;;7.05;4.10;;;;;;;;;;12989640;19;20035;-61
2023/06/08 09:07:30;;;;;;;7.90;5.07;;;;;;;;;;12988769;19;20025;-61
2023/06/08 09:12:00;;;;;;;8.38;5.95;;;;;;;;;;12990756;19;20043;-60
2023/06/08 09:16:22;;;;;;;6.68;4.30;;;;;;;;;;12988252;19;20174;-61
2023/06/08 09:20:40;;;;;;;11.25;5.95;;;;;;;;;;12989713;19;20018;-61
2023/06/08 09:24:58;;;;;;;6.80;3.97;;;;;;;;;;12987657;19;20545;-62
2023/06/08 09:29:40;;;;;;;9.43;5.40;;;;;;;;;;12987825;19;20029;-61
2023/06/08 09:34:09;;;;;;;6.70;3.72;;;;;;;;;;12989230;19;20383;-62
2023/06/08 09:38:29;;;;;;;7.03;5.05;;;;;;;;;;12988839;19;20014;-62
2023/06/08 09:42:53;;;;;;;5.57;3.50;;;;;;;;;;12989077;19;20490;-62
2023/06/08 09:47:25;;;;;;;6.00;3.90;;;;;;;;;;12987228;19;20029;-62
2023/06/08 09:51:52;;;;;;;6.13;4.43;;;;;;;;;;12988368;19;20014;-62
2023/06/08 09:56:16;;;;;;;5.50;4.28;;;;;;;;;;12987645;19;20021;-62
2023/06/08 10:00:36;;;;;;;6.28;4.65;;;;;;;;;;12986404;19;20039;-62
2023/06/08 10:04:58;;;;;;;6.40;4.20;;;;;;;;;;12985543;19;20018;-62
2023/06/08 10:09:22;;;;;;;8.45;3.90;;;;;;;;;;12985350;19;20014;-62
2023/06/08 10:13:40;;;;;;;5.07;3.80;;;;;;;;;;12987494;19;20022;-62
2023/06/08 10:18:03;;;;;;;5.40;3.75;;;;;;;;;;12985886;19;20014;-63
2023/06/08 10:22:22;;;;;;;3.60;2.78;;;;;;;;;;12986636;19;20039;-62
2023/06/08 10:26:40;;;;;;;5.05;3.83;;;;;;;;;;12985573;19;20483;-63
2023/06/08 10:31:34;;;;;;;7.07;4.25;;;;;;;;;;12986530;19;20034;-63
2023/06/08 10:36:09;;;;;;;5.50;3.45;;;;;;;;;;12982965;19;20025;-62
2023/06/08 10:40:27;;;;;;;4.63;3.63;;;;;;;;;;12986156;19;20011;-63
2023/06/08 10:44:53;;;;;;;6.25;4.63;;;;;;;;;;12985572;19;20018;-62
2023/06/08 10:49:11;;;;;;;3.75;2.75;;;;;;;;;;12983867;19;20022;-62
2023/06/08 10:53:56;;;;;;;4.85;2.88;;;;;;;;;;12985047;19;20394;-63
2023/06/08 10:58:20;;;;;;;3.92;3.13;;;;;;;;;;12984115;19;20026;-63
2023/06/08 11:02:40;;;;;;;4.90;3.78;;;;;;;;;;12984429;19;20350;-63
2023/06/08 11:07:03;;;;;;;4.40;3.47;;;;;;;;;;12984142;19;20026;-63
2023/06/08 11:11:21;;;;;;;3.45;2.90;;;;;;;;;;12984276;19;20023;-63
2023/06/08 11:15:48;;;;;;;5.63;3.80;;;;;;;;;;12982151;19;20470;-62
2023/06/08 11:20:07;;;;;;;5.10;3.53;;;;;;;;;;12982921;19;20014;-63
2023/06/08 11:24:30;;;;;;;4.20;3.03;;;;;;;;;;12983325;19;20024;-62
2023/06/08 11:28:49;;;;;;;5.68;3.55;;;;;;;;;;12982184;19;20014;-63
2023/06/08 11:33:14;;;;;;;5.82;3.72;;;;;;;;;;12981629;19;20011;-62
2023/06/08 11:37:35;;;;;;;5.30;3.30;;;;;;;;;;12982451;19;20502;-62
2023/06/08 11:41:54;;;;;;;4.10;2.75;;;;;;;;;;12982082;19;20015;-63
2023/06/08 11:46:13;;;;;;;4.88;2.88;;;;;;;;;;12986516;19;20357;-63
2023/06/08 11:50:31;;;;;;;9.95;3.47;;;;;;;;;;12995575;19;20018;-62
2023/06/08 11:54:54;;;;;;;3.78;2.90;;;;;;;;;;12995890;19;20340;-62
2023/06/08 11:59:16;;;;;;;6.30;2.55;;;;;;;;;;12994164;19;20017;-62
2023/06/08 12:03:45;;;;;;;4.05;2.88;;;;;;;;;;12995308;19;20108;-62
2023/06/08 12:08:11;;;;;;;5.72;3.60;;;;;;;;;;12992660;19;20014;-63
2023/06/08 12:12:29;;;;;;;4.65;2.85;;;;;;;;;;12994020;19;20462;-63
2023/06/08 12:16:47;;;;;;;4.95;2.67;;;;;;;;;;12992035;19;20014;-63
2023/06/08 12:21:10;;;;;;;5.20;2.90;;;;;;;;;;12992147;19;20014;-62
2023/06/08 12:25:31;;;;;;;4.43;2.85;;;;;;;;;;12992722;19;20640;-62
2023/06/08 12:29:50;;;;;;;3.58;2.67;;;;;;;;;;12992678;19;20437;-62
2023/06/08 12:34:08;;;;;;;4.25;3.00;;;;;;;;;;12991675;19;20025;-62
2023/06/08 12:38:26;;;;;;;4.68;3.28;;;;;;;;;;12992522;19;20022;-62
2023/06/08 12:42:51;;;;;;;7.18;3.75;;;;;;;;;;12992296;19;20011;-62
2023/06/08 12:47:10;;;;;;;3.10;2.33;;;;;;;;;;12990455;19;20358;-62
2023/06/08 12:51:28;;;;;;;3.17;2.28;;;;;;;;;;12990988;19;20018;-62
2023/06/08 12:55:46;;;;;;;;;;;;;;;;;;12990789;19;20370;-62
2023/06/08 13:00:07;;;;;;;4.70;3.00;;;;;;;;;;12988021;19;19915;-63
2023/06/08 13:04:27;;;;;;;5.00;2.88;;;;;;;;;;12990206;19;20014;-63
2023/06/08 13:08:47;;;;;;;6.25;3.35;;;;;;;;;;12989765;19;20038;-62
2023/06/08 13:13:08;;;;;;;4.70;3.17;;;;;;;;;;12990002;19;20504;-63
2023/06/08 13:17:26;;;;;;;5.03;3.38;;;;;;;;;;12988819;19;20017;-63
2023/06/08 13:21:44;;;;;;;4.70;3.42;;;;;;;;;;12989968;19;20378;-62
2023/06/08 13:26:03;;;;;;;3.50;2.33;;;;;;;;;;12988505;19;20015;-63
2023/06/08 13:30:26;;;;;;;3.53;2.35;;;;;;;;;;12988794;19;20099;-62
2023/06/08 13:34:48;;;;;;;4.93;2.70;;;;;;;;;;12989796;19;20343;-62
2023/06/08 13:39:06;;;;;;;4.82;2.83;;;;;;;;;;12988916;19;20018;-64
2023/06/08 13:43:24;;;;;;;3.83;2.55;;;;;;;;;;12988571;19;20018;-62
2023/06/08 13:47:43;;;;;;;7.40;2.20;;;;;;;;;;12987926;19;20057;-62
2023/06/08 13:52:01;;;;;;;2.85;2.28;;;;;;;;;;12988106;19;20010;-63
2023/06/08 13:56:18;;;;;;;4.53;2.70;;;;;;;;;;12987956;19;20021;-62
2023/06/08 14:00:36;;;;;;;4.55;3.10;;;;;;;;;;12987662;19;20017;-63
2023/06/08 14:04:54;;;;;;;3.08;2.42;;;;;;;;;;12987430;19;20374;-62
2023/06/08 14:09:12;;;;;;;5.30;2.83;;;;;;;;;;12986296;19;20370;-62
2023/06/08 14:13:30;;;;;;;3.45;2.75;;;;;;;;;;12987516;19;20335;-62
2023/06/08 14:17:49;;;;;;;5.47;2.33;;;;;;;;;;12986421;19;20018;-62
2023/06/08 14:22:07;;;;;;;5.53;2.60;;;;;;;;;;12986122;19;20019;-62
2023/06/08 14:26:25;;;;;;;;;;;;;;;;;;12986963;19;20042;-62
2023/06/08 14:30:44;;;;;;;4.88;2.58;;;;;;;;;;12986055;19;19919;-62
2023/06/08 14:35:01;;;;;;;;;;;;;;;;;;12986929;19;20019;-62
2023/06/08 14:39:21;;;;;;;7.28;2.65;;;;;;;;;;12985856;19;19946;-62
2023/06/08 14:43:38;;;;;;;;;;;;;;;;;;12986640;19;20014;-62
2023/06/08 14:47:56;;;;;;;5.72;2.50;;;;;;;;;;12985265;19;19930;-61
2023/06/08 14:52:14;;;;;;;4.38;2.67;;;;;;;;;;12984618;19;20018;-62
2023/06/08 14:56:32;;;;;;;3.97;2.40;;;;;;;;;;12985409;19;20011;-62
2023/06/08 15:00:50;;;;;;;;;;;;;;;;;;12985928;19;20347;-62
2023/06/08 15:05:09;;;;;;;4.32;2.78;;;;;;;;;;12984685;19;19925;-62
2023/06/08 15:09:27;;;;;;;4.22;2.80;;;;;;;;;;12985102;19;20502;-62
2023/06/08 15:13:45;;;;;;;4.32;2.38;;;;;;;;;;12984595;19;20014;-62
2023/06/08 15:18:02;;;;;;;;;;;;;;;;;;12983455;19;20011;-62
2023/06/08 15:22:21;;;;;;;4.32;2.85;;;;;;;;;;12982607;19;19946;-62
2023/06/08 15:26:39;;;;;;;3.95;2.65;;;;;;;;;;12983719;19;20011;-62
2023/06/08 15:30:59;;;;;;;2.97;1.10;;;;;;;;;;12983223;19;20373;-62
2023/06/08 15:35:17;;;;;;;4.57;2.90;;;;;;;;;;12982846;19;20018;-62
2023/06/08 15:39:35;;;;;;;3.45;1.92;;;;;;;;;;12982400;19;20019;-62
2023/06/08 15:43:53;;;;;;;3.55;2.25;;;;;;;;;;12982098;19;20022;-63
2023/06/08 15:48:11;;;;;;;3.53;2.35;;;;;;;;;;12982356;19;20010;-62
2023/06/08 15:52:29;;;;;;;3.80;2.85;;;;;;;;;;12981007;19;20019;-62
2023/06/08 15:56:47;;;;;;;4.18;2.33;;;;;;;;;;12982045;19;20039;-62
2023/06/08 16:01:04;;;;;;;;;;;;;;;;;;12981633;19;20014;-62
2023/06/08 16:05:23;;;;;;;3.63;2.63;;;;;;;;;;12981968;19;20660;-62
2023/06/08 16:09:40;;;;;;;;;;;;;;;;;;12981048;19;20021;-62
2023/06/08 16:13:58;;;;;;;3.83;2.50;;;;;;;;;;12980966;19;19914;-62
2023/06/08 16:18:16;;;;;;;4.35;2.83;;;;;;;;;;12979135;19;20474;-62
2023/06/08 16:22:35;;;;;;;3.58;2.38;;;;;;;;;;12979792;19;20010;-62
2023/06/08 16:26:54;;;;;;;3.80;2.65;;;;;;;;;;12979745;19;20358;-62
2023/06/08 16:31:14;;;;;;;2.38;1.73;;;;;;;;;;12983604;19;20002;-62
2023/06/08 16:35:33;;;;;;;6.70;3.10;;;;;;;;;;12993191;19;20011;-62
2023/06/08 16:39:51;;;;;;;3.42;2.50;;;;;;;;;;12993036;19;20014;-62
2023/06/08 16:44:09;;;;;;;3.30;2.28;;;;;;;;;;12991961;19;20022;-62
2023/06/08 16:48:26;;;;;;;4.55;2.97;;;;;;;;;;12991432;19;20019;-62
2023/06/08 16:52:44;;;;;;;4.43;3.08;;;;;;;;;;12991369;19;20019;-62
2023/06/08 16:57:03;;;;;;;;;;;;;;;;;;12991031;19;20478;-62
2023/06/08 17:01:20;;;;;;;6.25;3.35;;;;;;;;;;12990813;19;19919;-62
2023/06/08 17:05:38;;;;;;;4.88;2.67;;;;;;;;;;12990197;19;20014;-62
2023/06/08 17:10:03;;;;;;;3.92;2.65;;;;;;;;;;12989134;19;20478;-62
2023/06/08 17:14:22;;;;;;;5.00;2.95;;;;;;;;;;12990260;19;20026;-62
2023/06/08 17:18:40;;;;;;;9.70;2.97;;;;;;;;;;12988828;19;20015;-62
2023/06/08 17:22:57;;;;;;;4.68;3.03;;;;;;;;;;12987898;19;20042;-62
2023/06/08 17:27:17;;;;;;;6.00;3.15;;;;;;;;;;12989238;19;20023;-62
2023/06/08 17:31:38;;;;;;;4.80;3.40;;;;;;;;;;12989480;19;20014;-62
2023/06/08 17:35:57;;;;;;;4.18;3.05;;;;;;;;;;12987494;19;20827;-62
2023/06/08 17:40:15;;;;;;;;;;;;;;;;;;12988674;19;20021;-62
2023/06/08 17:44:33;;;;;;;5.03;2.88;;;;;;;;;;12987325;19;19939;-62
2023/06/08 17:48:52;;;;;;;4.63;3.05;;;;;;;;;;12987513;19;20010;-62
2023/06/08 17:53:11;;;;;;;3.50;2.85;;;;;;;;;;12987577;19;20028;-62
2023/06/08 17:57:29;;;;;;;4.25;2.60;;;;;;;;;;12987611;19;20042;-62
2023/06/08 18:01:47;;;;;;;3.60;2.78;;;;;;;;;;12987801;19;20014;-62
2023/06/08 18:06:06;;;;;;;3.25;2.33;;;;;;;;;;12986979;19;20014;-63
2023/06/08 18:10:41;;;;;;;5.20;3.50;;;;;;;;;;12987362;19;20070;-62
2023/06/08 18:15:00;;;;;;;5.80;3.97;;;;;;;;;;12987305;19;20026;-62
2023/06/08 18:19:19;;;;;;;4.25;3.25;;;;;;;;;;12985728;19;20354;-62
2023/06/08 18:23:37;;;;;;;4.82;3.08;;;;;;;;;;12986064;19;20015;-62
2023/06/08 18:27:56;;;;;;;4.30;3.38;;;;;;;;;;12986106;19;20027;-62
2023/06/08 18:32:15;;;;;;;5.15;3.50;;;;;;;;;;12985265;19;20014;-61
2023/06/08 18:36:33;;;;;;;6.20;4.25;;;;;;;;;;12986094;19;20021;-62
2023/06/08 18:40:51;;;;;;;5.95;3.20;;;;;;;;;;12986670;19;20013;-62
2023/06/08 18:45:09;;;;;;;;;;;;;;;;;;12986271;19;20398;-62
2023/06/08 18:49:26;;;;;;;7.05;3.20;;;;;;;;;;12985478;19;19943;-62
2023/06/08 18:53:45;;;;;;;7.45;3.15;;;;;;;;;;12983682;19;20022;-62
2023/06/08 18:58:03;;;;;;;4.72;3.47;;;;;;;;;;12983267;19;20015;-61
2023/06/08 19:02:23;;;;;;;5.75;4.03;;;;;;;;;;12984621;19;20018;-62
2023/06/08 19:06:41;;;;;;;13.70;7.78;;;;;;;;;;12984363;19;20017;-62
2023/06/08 19:11:00;;;;;;;18.80;10.68;;;;;;;;;;12983956;19;20760;-62
2023/06/08 19:15:19;;;;;;;17.92;9.52;;;;;;;;;;12983614;19;20010;-62
2023/06/08 19:19:38;;;;;;;15.63;8.32;;;;;;;;;;12985040;19;20014;-62
2023/06/08 19:23:56;;;;;;;9.23;6.25;;;;;;;;;;12984131;19;20022;-62
2023/06/08 19:28:15;;;;;;;12.77;8.07;;;;;;;;;;12982482;19;20025;-62
2023/06/08 19:32:34;;;;;;;8.68;5.32;;;;;;;;;;12983239;19;20502;-62
2023/06/08 19:36:53;;;;;;;5.22;3.65;;;;;;;;;;12982688;19;20010;-62
2023/06/08 19:41:11;;;;;;;4.75;3.80;;;;;;;;;;12982039;19;20014;-61
2023/06/08 19:45:29;;;;;;;6.35;4.40;;;;;;;;;;12982399;19;20014;-62
2023/06/08 19:49:48;;;;;;;6.30;4.00;;;;;;;;;;12982097;19;20025;-63
2023/06/08 19:54:07;;;;;;;6.35;4.38;;;;;;;;;;12981262;19;20010;-62
2023/06/08 19:58:25;;;;;;;6.28;3.20;;;;;;;;;;12982194;19;20025;-62
2023/06/08 20:02:43;;;;;;;6.07;3.78;;;;;;;;;;12982137;19;20025;-62
2023/06/08 20:07:04;;;;;;;4.43;3.45;;;;;;;;;;12986063;19;20018;-62
2023/06/08 20:11:23;;;;;;;7.90;3.40;;;;;;;;;;12994057;19;20014;-62
2023/06/08 20:15:41;;;;;;;7.25;4.13;;;;;;;;;;12992818;19;20015;-62
2023/06/08 20:19:58;;;;;;;;;;;;;;;;;;12994071;19;20039;-62
2023/06/08 20:24:17;;;;;;;5.75;3.45;;;;;;;;;;12992785;19;19938;-62
2023/06/08 20:28:36;;;;;;;5.00;3.55;;;;;;;;;;12993397;19;20034;-62
2023/06/08 20:32:54;;;;;;;5.70;4.38;;;;;;;;;;12990680;19;20485;-62
2023/06/08 20:37:15;;;;;;;5.40;3.40;;;;;;;;;;12992576;19;20707;-62
2023/06/08 20:41:35;;;;;;;5.63;3.75;;;;;;;;;;12993070;19;20015;-62
2023/06/08 20:45:54;;;;;;;5.70;3.95;;;;;;;;;;12992996;19;20082;-62
2023/06/08 20:50:13;;;;;;;6.93;4.00;;;;;;;;;;12991584;19;20477;-62
2023/06/08 20:54:31;;;;;;;4.32;3.47;;;;;;;;;;12992247;19;20014;-62
2023/06/08 20:58:49;;;;;;;5.28;3.78;;;;;;;;;;12991571;19;20015;-62
2023/06/08 21:03:06;;;;;;;6.70;3.97;;;;;;;;;;12990653;19;20019;-62
2023/06/08 21:07:25;;;;;;;8.32;4.32;;;;;;;;;;12990641;19;20536;-62
2023/06/08 21:11:45;;;;;;;5.78;3.75;;;;;;;;;;12990814;19;20397;-62
2023/06/08 21:16:03;;;;;;;4.88;3.88;;;;;;;;;;12988416;19;20038;-63
2023/06/08 21:20:21;;;;;;;6.32;4.32;;;;;;;;;;12988239;19;20366;-62
2023/06/08 21:24:39;;;;;;;5.72;3.88;;;;;;;;;;12990181;19;20014;-62
2023/06/08 21:28:57;;;;;;;5.65;3.83;;;;;;;;;;12989432;19;20010;-62
2023/06/08 21:33:16;;;;;;;7.55;3.58;;;;;;;;;;12990393;19;20010;-62
2023/06/08 21:37:34;;;;;;;7.10;3.72;;;;;;;;;;12989805;19;20362;-61
2023/06/08 21:41:54;;;;;;;7.45;3.95;;;;;;;;;;12989332;19;20014;-62
2023/06/08 21:46:12;;;;;;;5.68;3.47;;;;;;;;;;12988249;19;20358;-62
2023/06/08 21:50:30;;;;;;;5.38;4.03;;;;;;;;;;12988041;19;20693;-62
2023/06/08 21:54:48;;;;;;;4.97;3.53;;;;;;;;;;12988566;19;20601;-62
2023/06/08 21:59:05;;;;;;;3.95;3.10;;;;;;;;;;12987608;19;20014;-62
2023/06/08 22:03:23;;;;;;;5.25;3.75;;;;;;;;;;12988568;19;20459;-61
2023/06/08 22:07:42;;;;;;;5.00;3.72;;;;;;;;;;12986907;19;20372;-62
2023/06/08 22:12:00;;;;;;;6.07;3.92;;;;;;;;;;12987390;19;20014;-61
2023/06/08 22:16:19;;;;;;;4.70;3.38;;;;;;;;;;12987404;19;20111;-62
2023/06/08 22:20:42;;;;;;;5.43;3.78;;;;;;;;;;12988861;19;20985;-61
2023/06/08 22:24:59;;;;;;;6.65;4.22;;;;;;;;;;12973068;19;20095;-61
2023/06/08 22:29:18;;;;;;;6.78;3.90;;;;;;;;;;12985629;19;20022;-61
2023/06/08 22:33:39;;;;;;;6.03;3.55;;;;;;;;;;12986888;19;20018;-61
2023/06/08 22:37:58;;;;;;;4.78;3.78;;;;;;;;;;12986630;19;20014;-62
2023/06/08 22:42:16;;;;;;;5.97;3.78;;;;;;;;;;12985744;19;20031;-62
2023/06/08 22:46:34;;;;;;;7.50;3.53;;;;;;;;;;12986354;19;20594;-61
2023/06/08 22:50:52;;;;;;;6.40;3.50;;;;;;;;;;12985764;19;20019;-62
2023/06/08 22:55:11;;;;;;;5.63;3.92;;;;;;;;;;12985210;19;20014;-61
2023/06/08 22:59:29;;;;;;;8.70;3.55;;;;;;;;;;12985377;19;20010;-61
2023/06/08 23:03:46;;;;;;;;;;;;;;;;;;12986372;19;20034;-61
2023/06/08 23:08:07;;;;;;;6.22;4.22;;;;;;;;;;12984198;19;19925;-61
2023/06/08 23:12:27;;;;;;;5.13;3.80;;;;;;;;;;12984545;19;20049;-60
2023/06/08 23:16:48;;;;;;;6.18;3.80;;;;;;;;;;12983588;19;20011;-61
2023/06/08 23:21:12;;;;;;;5.20;4.13;;;;;;;;;;12983426;19;20022;-61
2023/06/08 23:25:32;;;;;;;7.40;4.50;;;;;;;;;;12983671;19;20039;-61
2023/06/08 23:29:50;;;;;;;8.77;4.00;;;;;;;;;;12983632;19;20031;-61
2023/06/08 23:34:09;;;;;;;5.50;3.92;;;;;;;;;;12982868;19;20017;-61
2023/06/08 23:38:27;;;;;;;4.78;3.35;;;;;;;;;;12984154;19;20027;-61
2023/06/08 23:42:45;;;;;;;5.75;3.90;;;;;;;;;;12982155;19;20029;-61
2023/06/08 23:47:07;;;;;;;5.07;3.97;;;;;;;;;;12982534;19;20061;-61
2023/06/08 23:51:25;;;;;;;5.25;3.63;;;;;;;;;;12982432;19;20022;-61
2023/06/08 23:55:45;;;;;;;6.85;3.72;;;;;;;;;;12981600;19;20502;-61
